Time;durP1;ratioP1;P1;durP2;ratioP2;P2;SDS_P1;SDS_P2;PMS_P1;PMS_P2;Temp;Humidity;BMP_temperature;BMP_pressure;BME280_temperature;BME280_humidity;BME280_pressure;Samples;Min_cycle;Max_cycle;Signal;HPM_P1;HPM_P2
2023/07/24 00:00:49;;;;;;;8.45;6.93;;;;;;;;;;5041275;28;20029;-52
2023/07/24 00:03:22;;;;;;;9.35;7.78;;;;;;;;;;5041320;28;20075;-58
2023/07/24 00:05:52;;;;;;;9.50;7.85;;;;;;;;;;5041506;28;20030;-48
2023/07/24 00:08:19;;;;;;;9.68;7.45;;;;;;;;;;5041473;28;20075;-50
2023/07/24 00:10:46;;;;;;;9.57;7.53;;;;;;;;;;5040887;28;20056;-52
2023/07/24 00:13:13;;;;;;;7.72;6.65;;;;;;;;;;5041359;28;20053;-48
2023/07/24 00:15:39;;;;;;;11.52;7.50;;;;;;;;;;5041185;28;20034;-49
2023/07/24 00:18:15;;;;;;;10.18;7.80;;;;;;;;;;5041779;28;20037;-55
2023/07/24 00:20:49;;;;;;;11.10;8.65;;;;;;;;;;5040794;28;20321;-58
2023/07/24 00:23:17;;;;;;;11.65;8.55;;;;;;;;;;5040921;28;20048;-50
2023/07/24 00:25:44;;;;;;;10.27;8.82;;;;;;;;;;5041229;28;20025;-57
2023/07/24 00:28:10;;;;;;;10.95;8.65;;;;;;;;;;5041230;28;20025;-57
2023/07/24 00:30:37;;;;;;;13.15;8.75;;;;;;;;;;5024590;28;20053;-50
2023/07/24 00:33:03;;;;;;;12.23;9.55;;;;;;;;;;5044333;28;20191;-55
2023/07/24 00:35:30;;;;;;;11.77;9.15;;;;;;;;;;5044394;28;20040;-54
2023/07/24 00:38:26;;;;;;;10.77;8.68;;;;;;;;;;5044196;28;20028;-60
2023/07/24 00:40:53;;;;;;;10.60;9.23;;;;;;;;;;5032029;28;20053;-52
2023/07/24 00:43:19;;;;;;;11.13;8.45;;;;;;;;;;5044272;28;20022;-54
2023/07/24 00:45:47;;;;;;;12.00;9.13;;;;;;;;;;5044285;28;20029;-53
2023/07/24 00:48:14;;;;;;;11.27;9.02;;;;;;;;;;5026261;28;20022;-47
2023/07/24 00:50:47;;;;;;;10.40;8.05;;;;;;;;;;5026270;28;20037;-55
2023/07/24 00:53:15;;;;;;;10.95;8.38;;;;;;;;;;5044098;28;20119;-54
2023/07/24 00:55:43;;;;;;;8.52;7.65;;;;;;;;;;5044072;28;20041;-49
2023/07/24 00:58:11;;;;;;;10.95;6.90;;;;;;;;;;5026262;28;20072;-52
2023/07/24 01:00:39;;;;;;;9.18;7.00;;;;;;;;;;5044300;28;20170;-51
2023/07/24 01:03:05;;;;;;;6.95;5.88;;;;;;;;;;5043956;28;20125;-50
2023/07/24 01:05:32;;;;;;;8.40;6.07;;;;;;;;;;5043510;28;20066;-57
2023/07/24 01:07:59;;;;;;;8.73;5.80;;;;;;;;;;5043621;28;20047;-50
2023/07/24 01:10:29;;;;;;;6.82;4.80;;;;;;;;;;5043795;28;20318;-54
2023/07/24 01:13:01;;;;;;;7.93;7.13;;;;;;;;;;5043810;28;20041;-57
2023/07/24 01:15:35;;;;;;;8.13;5.63;;;;;;;;;;5025337;28;20029;-54
2023/07/24 01:18:10;;;;;;;7.20;4.70;;;;;;;;;;5043639;28;20017;-50
2023/07/24 01:20:38;;;;;;;5.97;3.80;;;;;;;;;;5026690;28;20094;-51
2023/07/24 01:23:18;;;;;;;8.00;3.90;;;;;;;;;;5043550;28;20018;-54
2023/07/24 01:26:03;;;;;;;8.18;3.95;;;;;;;;;;5043658;28;20062;-51
2023/07/24 01:28:31;;;;;;;5.22;2.90;;;;;;;;;;5043614;28;20030;-54
2023/07/24 01:30:58;;;;;;;6.35;3.30;;;;;;;;;;5043376;28;20104;-50
2023/07/24 01:33:32;;;;;;;5.50;3.17;;;;;;;;;;5043400;28;20053;-53
2023/07/24 01:36:00;;;;;;;5.70;2.83;;;;;;;;;;5043536;28;20037;-51
2023/07/24 01:38:37;;;;;;;5.18;3.30;;;;;;;;;;5043431;28;20049;-54
2023/07/24 01:41:05;;;;;;;6.13;3.08;;;;;;;;;;5042964;28;20336;-53
2023/07/24 01:43:32;;;;;;;4.80;2.78;;;;;;;;;;5043033;28;20025;-51
2023/07/24 01:45:59;;;;;;;6.32;2.65;;;;;;;;;;5043122;28;20013;-52
2023/07/24 01:48:25;;;;;;;5.65;2.92;;;;;;;;;;5043169;28;20039;-49
2023/07/24 01:50:52;;;;;;;10.05;3.25;;;;;;;;;;5025108;28;20070;-57
2023/07/24 01:53:25;;;;;;;5.15;2.50;;;;;;;;;;5043088;28;20344;-55
2023/07/24 01:55:51;;;;;;;8.95;3.10;;;;;;;;;;5042943;28;20025;-50
2023/07/24 01:58:21;;;;;;;6.32;2.80;;;;;;;;;;5042733;28;20064;-61
2023/07/24 02:00:50;;;;;;;4.75;3.05;;;;;;;;;;5043177;28;20025;-54
2023/07/24 02:03:18;;;;;;;5.53;2.58;;;;;;;;;;5043182;28;20298;-50
2023/07/24 02:05:50;;;;;;;5.82;2.95;;;;;;;;;;5042832;28;20029;-52
2023/07/24 02:08:19;;;;;;;;;;;;;;;;;;5043224;28;20013;-49
2023/07/24 02:10:50;;;;;;;6.20;3.70;;;;;;;;;;5042589;28;19933;-53
2023/07/24 02:13:16;;;;;;;6.57;3.53;;;;;;;;;;5042781;28;20228;-49
2023/07/24 02:15:46;;;;;;;7.00;3.60;;;;;;;;;;5042938;28;20020;-51
2023/07/24 02:18:12;;;;;;;4.63;2.90;;;;;;;;;;5042644;28;20243;-54
2023/07/24 02:20:39;;;;;;;4.88;3.10;;;;;;;;;;5042518;28;20052;-49
2023/07/24 02:23:10;;;;;;;4.60;2.85;;;;;;;;;;5042946;28;20037;-61
2023/07/24 02:25:36;;;;;;;5.00;2.90;;;;;;;;;;5042705;28;20024;-54
2023/07/24 02:28:03;;;;;;;4.15;2.72;;;;;;;;;;5042908;28;20347;-50
2023/07/24 02:30:30;;;;;;;5.40;2.80;;;;;;;;;;5042783;28;20344;-52
2023/07/24 02:32:57;;;;;;;6.30;2.63;;;;;;;;;;5042770;28;20025;-51
2023/07/24 02:35:29;;;;;;;6.63;2.80;;;;;;;;;;5043123;28;20084;-55
2023/07/24 02:37:56;;;;;;;7.40;2.75;;;;;;;;;;5042452;28;20017;-55
2023/07/24 02:40:23;;;;;;;6.55;2.60;;;;;;;;;;5042147;28;20013;-52
2023/07/24 02:42:50;;;;;;;5.93;2.67;;;;;;;;;;5042369;28;20026;-51
2023/07/24 02:45:41;;;;;;;5.65;2.33;;;;;;;;;;5042414;28;20022;-57
2023/07/24 02:48:08;;;;;;;5.50;2.58;;;;;;;;;;5041672;28;20024;-55
2023/07/24 02:50:34;;;;;;;8.60;2.60;;;;;;;;;;5042766;28;20256;-55
2023/07/24 02:53:01;;;;;;;8.65;2.47;;;;;;;;;;5041236;28;20210;-50
2023/07/24 02:55:29;;;;;;;6.10;2.50;;;;;;;;;;5042316;28;20044;-49
2023/07/24 02:57:58;;;;;;;7.85;2.90;;;;;;;;;;5041764;28;20021;-52
2023/07/24 03:00:48;;;;;;;5.60;3.05;;;;;;;;;;5041752;28;20080;-54
2023/07/24 03:03:14;;;;;;;5.40;3.72;;;;;;;;;;5041744;28;20033;-54
2023/07/24 03:05:47;;;;;;;9.18;4.20;;;;;;;;;;5041813;28;20055;-55
2023/07/24 03:08:13;;;;;;;7.20;4.72;;;;;;;;;;5041702;28;20205;-50
2023/07/24 03:10:43;;;;;;;10.85;4.78;;;;;;;;;;5041968;28;20070;-52
2023/07/24 03:13:13;;;;;;;8.65;4.65;;;;;;;;;;5041789;28;20305;-52
2023/07/24 03:15:39;;;;;;;7.75;4.60;;;;;;;;;;5041743;28;20021;-52
2023/07/24 03:18:11;;;;;;;8.43;3.88;;;;;;;;;;5041740;28;20070;-51
2023/07/24 03:20:44;;;;;;;10.50;4.43;;;;;;;;;;5024138;28;20034;-53
2023/07/24 03:23:10;;;;;;;7.18;5.07;;;;;;;;;;5041662;28;20037;-52
2023/07/24 03:25:37;;;;;;;11.80;5.70;;;;;;;;;;5041977;28;20033;-49
2023/07/24 03:28:03;;;;;;;9.68;5.35;;;;;;;;;;5041982;28;20067;-51
2023/07/24 03:30:30;;;;;;;9.52;5.50;;;;;;;;;;5041710;28;20021;-49
2023/07/24 03:32:58;;;;;;;7.97;5.35;;;;;;;;;;5041687;28;20213;-49
2023/07/24 03:35:24;;;;;;;9.73;5.45;;;;;;;;;;5041653;28;20021;-50
2023/07/24 03:37:51;;;;;;;7.97;5.32;;;;;;;;;;5041672;28;20021;-49
2023/07/24 03:40:18;;;;;;;6.55;5.07;;;;;;;;;;5041441;28;20026;-53
2023/07/24 03:42:50;;;;;;;10.32;5.70;;;;;;;;;;5041423;28;20055;-55
2023/07/24 03:45:16;;;;;;;;;;;;;;;;;;5041774;28;20254;-54
2023/07/24 03:47:43;;;;;;;6.68;4.10;;;;;;;;;;5041448;28;20127;-49
2023/07/24 03:50:13;;;;;;;8.77;4.18;;;;;;;;;;5041076;28;20032;-57
2023/07/24 03:52:39;;;;;;;8.35;4.45;;;;;;;;;;5041784;28;20179;-53
2023/07/24 03:55:07;;;;;;;9.77;4.18;;;;;;;;;;5041511;28;20088;-50
2023/07/24 03:57:34;;;;;;;5.90;4.30;;;;;;;;;;5041746;28;20063;-51
2023/07/24 04:00:01;;;;;;;8.85;4.40;;;;;;;;;;5041464;28;20084;-55
2023/07/24 04:02:27;;;;;;;7.75;3.55;;;;;;;;;;5023631;28;20274;-51
2023/07/24 04:04:54;;;;;;;5.20;3.88;;;;;;;;;;5044661;28;20026;-48
2023/07/24 04:07:21;;;;;;;6.78;3.75;;;;;;;;;;5047913;28;20024;-49
2023/07/24 04:09:47;;;;;;;5.55;3.40;;;;;;;;;;5047786;28;20025;-54
2023/07/24 04:12:14;;;;;;;8.23;3.60;;;;;;;;;;5048512;28;20201;-51
2023/07/24 04:14:41;;;;;;;7.78;3.30;;;;;;;;;;5047901;28;20259;-47
2023/07/24 04:17:07;;;;;;;9.50;3.40;;;;;;;;;;5048025;28;20021;-49
2023/07/24 04:19:34;;;;;;;9.07;3.10;;;;;;;;;;5047799;28;20030;-56
2023/07/24 04:22:00;;;;;;;6.18;3.00;;;;;;;;;;5048017;28;20045;-54
2023/07/24 04:24:27;;;;;;;7.60;2.75;;;;;;;;;;5047557;28;20053;-54
2023/07/24 04:26:54;;;;;;;7.55;2.95;;;;;;;;;;5047527;28;20067;-49
2023/07/24 04:29:23;;;;;;;6.60;2.88;;;;;;;;;;5047560;28;20062;-52
2023/07/24 04:31:51;;;;;;;7.38;2.75;;;;;;;;;;5047376;28;20030;-50
2023/07/24 04:34:18;;;;;;;7.28;2.92;;;;;;;;;;5047790;28;20044;-54
2023/07/24 04:36:47;;;;;;;6.88;2.70;;;;;;;;;;5047610;28;20026;-54
2023/07/24 04:39:13;;;;;;;4.35;2.70;;;;;;;;;;5047258;28;20030;-51
2023/07/24 04:41:40;;;;;;;7.45;3.03;;;;;;;;;;5047850;28;20033;-48
2023/07/24 04:44:07;;;;;;;4.72;2.58;;;;;;;;;;5047821;28;20133;-50
2023/07/24 04:46:33;;;;;;;4.05;2.50;;;;;;;;;;5047685;28;20237;-48
2023/07/24 04:49:00;;;;;;;9.43;3.28;;;;;;;;;;5047653;28;20048;-49
2023/07/24 04:51:27;;;;;;;7.35;2.78;;;;;;;;;;5047563;28;20187;-53
2023/07/24 04:53:54;;;;;;;9.50;3.20;;;;;;;;;;5047550;28;20022;-51
2023/07/24 04:56:21;;;;;;;3.50;2.83;;;;;;;;;;5047815;28;20044;-50
2023/07/24 04:58:47;;;;;;;7.60;2.83;;;;;;;;;;5046975;28;20082;-54
2023/07/24 05:01:15;;;;;;;5.82;2.58;;;;;;;;;;5047502;28;20251;-56
2023/07/24 05:03:41;;;;;;;6.78;2.70;;;;;;;;;;5047462;28;20029;-51
2023/07/24 05:06:08;;;;;;;8.45;2.70;;;;;;;;;;5047440;28;20033;-54
2023/07/24 05:08:35;;;;;;;8.77;2.50;;;;;;;;;;5047369;28;20024;-55
2023/07/24 05:11:01;;;;;;;4.90;2.33;;;;;;;;;;5047440;28;20041;-52
2023/07/24 05:13:28;;;;;;;6.45;2.60;;;;;;;;;;5047416;28;20088;-51
2023/07/24 05:15:56;;;;;;;5.55;2.47;;;;;;;;;;5045452;28;20025;-53
2023/07/24 05:18:29;;;;;;;4.90;2.22;;;;;;;;;;5044022;28;20042;-54
2023/07/24 05:20:56;;;;;;;8.65;2.78;;;;;;;;;;5039127;28;20028;-49
2023/07/24 05:23:22;;;;;;;8.00;2.47;;;;;;;;;;5051407;27;20271;-52
2023/07/24 05:25:57;;;;;;;8.10;2.30;;;;;;;;;;5043269;28;20017;-49
2023/07/24 05:28:25;;;;;;;10.05;2.40;;;;;;;;;;5042791;28;20025;-51
2023/07/24 05:30:52;;;;;;;6.28;2.20;;;;;;;;;;5042924;27;20045;-49
2023/07/24 05:33:19;;;;;;;5.32;2.28;;;;;;;;;;5043218;28;20025;-55
2023/07/24 05:35:50;;;;;;;5.55;2.20;;;;;;;;;;5048527;28;20313;-52
2023/07/24 05:38:17;;;;;;;9.68;2.60;;;;;;;;;;5046918;28;20033;-52
2023/07/24 05:40:47;;;;;;;8.15;2.40;;;;;;;;;;5043009;28;20025;-52
2023/07/24 05:43:13;;;;;;;3.03;1.95;;;;;;;;;;5043027;28;20041;-49
2023/07/24 05:45:40;;;;;;;5.78;2.08;;;;;;;;;;5045072;28;20050;-48
2023/07/24 05:48:07;;;;;;;7.30;2.17;;;;;;;;;;5051574;28;20032;-52
2023/07/24 05:50:36;;;;;;;6.93;2.25;;;;;;;;;;5043136;28;20048;-49
2023/07/24 05:53:03;;;;;;;4.32;2.40;;;;;;;;;;5042694;28;20252;-48
2023/07/24 05:55:29;;;;;;;7.35;2.58;;;;;;;;;;5042833;28;20025;-50
2023/07/24 05:57:56;;;;;;;6.50;2.45;;;;;;;;;;5042584;28;20232;-49
2023/07/24 06:00:22;;;;;;;5.50;2.38;;;;;;;;;;5042558;28;20243;-50
2023/07/24 06:02:49;;;;;;;7.05;2.35;;;;;;;;;;5042729;28;20017;-48
2023/07/24 06:05:16;;;;;;;6.18;1.98;;;;;;;;;;5042783;28;20106;-49
2023/07/24 06:07:42;;;;;;;8.93;2.22;;;;;;;;;;5042374;28;20247;-53
2023/07/24 06:10:09;;;;;;;8.07;2.33;;;;;;;;;;5041806;28;20043;-50
2023/07/24 06:12:36;;;;;;;8.27;2.78;;;;;;;;;;5024965;28;20032;-48
2023/07/24 06:15:03;;;;;;;4.68;2.35;;;;;;;;;;5042743;28;20040;-51
2023/07/24 06:17:29;;;;;;;7.07;1.90;;;;;;;;;;5042461;28;20082;-53
2023/07/24 06:19:56;;;;;;;10.05;2.10;;;;;;;;;;5042872;28;20033;-49
2023/07/24 06:22:23;;;;;;;4.85;1.95;;;;;;;;;;5042369;28;20225;-52
2023/07/24 06:24:50;;;;;;;11.10;2.53;;;;;;;;;;5042659;28;20033;-50
2023/07/24 06:27:17;;;;;;;9.02;2.13;;;;;;;;;;5041867;28;20207;-51
2023/07/24 06:29:44;;;;;;;6.43;2.30;;;;;;;;;;5042005;28;20034;-52
2023/07/24 06:32:10;;;;;;;8.10;2.17;;;;;;;;;;5042178;28;20017;-51
2023/07/24 06:34:37;;;;;;;6.55;2.10;;;;;;;;;;5042529;28;20092;-55
2023/07/24 06:37:04;;;;;;;7.53;2.17;;;;;;;;;;5042045;28;20033;-63
2023/07/24 06:39:30;;;;;;;7.18;1.92;;;;;;;;;;5049463;28;20051;-49
2023/07/24 06:42:00;;;;;;;5.53;1.90;;;;;;;;;;5045086;28;20082;-51
2023/07/24 06:44:27;;;;;;;5.43;2.00;;;;;;;;;;5042321;28;20036;-50
2023/07/24 06:46:53;;;;;;;6.50;1.77;;;;;;;;;;5042104;28;20024;-52
2023/07/24 06:49:20;;;;;;;7.75;1.95;;;;;;;;;;5042243;28;20206;-52
2023/07/24 06:51:47;;;;;;;7.00;1.92;;;;;;;;;;5041855;28;20344;-50
2023/07/24 06:54:13;;;;;;;7.95;2.00;;;;;;;;;;5023966;28;20225;-54
2023/07/24 06:56:40;;;;;;;4.07;1.58;;;;;;;;;;5042002;28;20080;-52
2023/07/24 06:59:07;;;;;;;5.35;1.60;;;;;;;;;;5041801;28;20149;-53
2023/07/24 07:01:34;;;;;;;5.47;1.70;;;;;;;;;;5041646;28;20036;-49
2023/07/24 07:04:00;;;;;;;5.72;1.85;;;;;;;;;;5041946;28;20045;-52
2023/07/24 07:06:27;;;;;;;5.60;1.98;;;;;;;;;;5041693;28;20026;-55
2023/07/24 07:08:54;;;;;;;8.38;2.40;;;;;;;;;;5042043;28;20022;-52
2023/07/24 07:11:20;;;;;;;9.13;2.22;;;;;;;;;;5041597;28;20048;-52
2023/07/24 07:13:47;;;;;;;9.52;2.00;;;;;;;;;;5041854;28;20232;-49
2023/07/24 07:16:13;;;;;;;5.25;1.95;;;;;;;;;;5041425;28;20081;-52
2023/07/24 07:18:40;;;;;;;6.68;2.03;;;;;;;;;;5041955;28;20245;-50
2023/07/24 07:21:07;;;;;;;6.97;1.80;;;;;;;;;;5041399;28;20207;-52
2023/07/24 07:23:33;;;;;;;5.35;1.83;;;;;;;;;;5041361;28;20027;-51
2023/07/24 07:26:00;;;;;;;6.28;2.13;;;;;;;;;;5041608;28;20044;-51
2023/07/24 07:28:26;;;;;;;3.72;1.95;;;;;;;;;;5041543;28;20034;-50
2023/07/24 07:30:54;;;;;;;6.93;2.00;;;;;;;;;;5041403;28;20235;-52
2023/07/24 07:33:21;;;;;;;7.50;2.25;;;;;;;;;;5041340;28;20125;-52
2023/07/24 07:35:48;;;;;;;8.48;2.00;;;;;;;;;;5041153;28;20258;-51
2023/07/24 07:38:15;;;;;;;5.32;2.22;;;;;;;;;;5041160;28;20049;-49
2023/07/24 07:40:41;;;;;;;9.05;1.90;;;;;;;;;;5040589;28;20028;-49
2023/07/24 07:43:08;;;;;;;8.20;2.35;;;;;;;;;;5041202;28;20071;-47
2023/07/24 07:45:35;;;;;;;4.85;1.85;;;;;;;;;;5040984;28;20029;-50
2023/07/24 07:48:01;;;;;;;6.47;2.05;;;;;;;;;;5041037;28;20014;-52
2023/07/24 07:50:28;;;;;;;7.78;1.98;;;;;;;;;;5041146;28;20029;-54
2023/07/24 07:52:55;;;;;;;8.65;2.30;;;;;;;;;;5040842;28;20017;-53
2023/07/24 07:55:21;;;;;;;5.63;2.03;;;;;;;;;;5041173;28;20072;-55
2023/07/24 07:57:48;;;;;;;5.95;1.70;;;;;;;;;;5040866;28;20040;-60
2023/07/24 08:00:15;;;;;;;9.18;2.30;;;;;;;;;;5040836;28;20324;-60
2023/07/24 08:02:42;;;;;;;6.57;2.20;;;;;;;;;;5040991;28;20221;-62
2023/07/24 08:05:09;;;;;;;7.38;2.08;;;;;;;;;;5041977;28;20029;-51
2023/07/24 08:07:36;;;;;;;7.10;2.17;;;;;;;;;;5040754;28;20014;-51
2023/07/24 08:10:04;;;;;;;8.73;1.83;;;;;;;;;;5041346;28;20026;-51
2023/07/24 08:12:30;;;;;;;7.90;2.60;;;;;;;;;;5040709;28;20029;-49
2023/07/24 08:14:57;;;;;;;11.25;2.10;;;;;;;;;;5040379;28;20040;-58
2023/07/24 08:17:24;;;;;;;8.00;2.22;;;;;;;;;;5040910;28;20067;-53
2023/07/24 08:20:03;;;;;;;8.20;1.90;;;;;;;;;;5040552;28;20109;-56
2023/07/24 08:22:29;;;;;;;9.30;2.15;;;;;;;;;;5040516;28;20042;-51
2023/07/24 08:24:56;;;;;;;8.10;2.20;;;;;;;;;;5041131;28;20298;-51
2023/07/24 08:27:22;;;;;;;10.48;2.10;;;;;;;;;;5040631;28;20024;-55
2023/07/24 08:29:54;;;;;;;9.02;2.15;;;;;;;;;;5040955;28;20063;-54
2023/07/24 08:32:21;;;;;;;10.50;2.33;;;;;;;;;;5043085;28;20036;-50
2023/07/24 08:34:47;;;;;;;10.02;2.30;;;;;;;;;;5031340;28;20042;-50
2023/07/24 08:37:14;;;;;;;9.10;2.22;;;;;;;;;;5040706;28;20017;-56
2023/07/24 08:39:41;;;;;;;6.40;2.08;;;;;;;;;;5040927;28;20172;-50
2023/07/24 08:42:11;;;;;;;7.35;2.20;;;;;;;;;;5040268;28;20321;-49
2023/07/24 08:44:38;;;;;;;10.45;2.45;;;;;;;;;;5040734;28;20121;-52
2023/07/24 08:47:06;;;;;;;7.45;2.25;;;;;;;;;;5040284;28;20255;-48
2023/07/24 08:49:33;;;;;;;5.80;2.42;;;;;;;;;;5040598;28;20053;-51
2023/07/24 08:52:00;;;;;;;7.38;1.90;;;;;;;;;;5042005;28;20022;-49
2023/07/24 08:54:27;;;;;;;5.13;1.85;;;;;;;;;;5043982;28;20034;-56
2023/07/24 08:56:55;;;;;;;3.30;2.08;;;;;;;;;;5043536;28;20018;-48
2023/07/24 08:59:25;;;;;;;7.63;2.03;;;;;;;;;;5043726;28;20058;-51
2023/07/24 09:01:52;;;;;;;5.22;1.90;;;;;;;;;;5043366;28;20037;-55
2023/07/24 09:04:18;;;;;;;5.15;1.92;;;;;;;;;;5043834;28;20066;-57
2023/07/24 09:06:46;;;;;;;10.82;2.10;;;;;;;;;;5043478;28;20056;-50
2023/07/24 09:09:14;;;;;;;6.05;1.90;;;;;;;;;;5043921;28;20041;-50
2023/07/24 09:12:06;;;;;;;5.32;1.95;;;;;;;;;;5042566;28;20036;-50
2023/07/24 09:14:33;;;;;;;6.18;2.47;;;;;;;;;;5043955;28;20078;-53
2023/07/24 09:17:03;;;;;;;7.97;1.90;;;;;;;;;;5043355;28;20038;-54
2023/07/24 09:19:30;;;;;;;6.90;2.00;;;;;;;;;;5043830;28;20106;-50
2023/07/24 09:21:56;;;;;;;8.90;2.10;;;;;;;;;;5043108;28;20055;-60
2023/07/24 09:24:23;;;;;;;7.25;1.90;;;;;;;;;;5043470;28;20030;-50
2023/07/24 09:26:53;;;;;;;7.03;2.17;;;;;;;;;;5043439;28;20035;-51
2023/07/24 09:29:20;;;;;;;6.43;1.85;;;;;;;;;;5043666;28;20033;-56
2023/07/24 09:31:47;;;;;;;8.07;2.30;;;;;;;;;;5043219;28;20033;-51
2023/07/24 09:34:17;;;;;;;4.47;2.00;;;;;;;;;;5043440;28;20373;-56
2023/07/24 09:36:44;;;;;;;7.22;2.22;;;;;;;;;;5043009;28;20021;-50
2023/07/24 09:39:11;;;;;;;10.45;2.25;;;;;;;;;;5043099;28;20361;-48
2023/07/24 09:41:41;;;;;;;7.32;2.15;;;;;;;;;;5031331;28;20045;-53
2023/07/24 09:44:08;;;;;;;7.80;2.00;;;;;;;;;;5043294;28;20026;-49
2023/07/24 09:46:34;;;;;;;9.07;2.05;;;;;;;;;;5043607;28;20034;-56
2023/07/24 09:49:02;;;;;;;8.52;2.08;;;;;;;;;;5054540;28;20070;-49
2023/07/24 09:51:30;;;;;;;7.70;2.15;;;;;;;;;;5042709;28;20340;-51
2023/07/24 09:54:01;;;;;;;10.95;2.20;;;;;;;;;;5043011;28;20041;-48
2023/07/24 09:56:28;;;;;;;5.32;2.10;;;;;;;;;;5042959;28;20030;-47
2023/07/24 09:59:18;;;;;;;8.43;2.10;;;;;;;;;;5098115;27;20097;-51
2023/07/24 10:01:45;;;;;;;5.82;2.13;;;;;;;;;;5146922;27;20027;-49
2023/07/24 10:04:12;;;;;;;6.63;2.20;;;;;;;;;;5147463;27;20019;-53
2023/07/24 10:06:40;;;;;;;8.55;2.13;;;;;;;;;;5146975;27;20091;-54
2023/07/24 10:09:08;;;;;;;8.95;2.20;;;;;;;;;;5147391;27;20027;-47
2023/07/24 10:11:34;;;;;;;10.10;2.15;;;;;;;;;;5147055;27;20050;-48
2023/07/24 10:14:02;;;;;;;9.77;2.10;;;;;;;;;;5147079;27;20039;-56
2023/07/24 10:16:29;;;;;;;7.60;2.17;;;;;;;;;;5146796;27;20025;-48
2023/07/24 10:18:55;;;;;;;10.23;1.98;;;;;;;;;;5146941;27;20031;-48
2023/07/24 10:21:28;;;;;;;10.60;2.33;;;;;;;;;;5146654;27;20035;-50
2023/07/24 10:23:54;;;;;;;10.85;2.50;;;;;;;;;;5146820;27;20019;-52
2023/07/24 10:26:30;;;;;;;8.25;2.20;;;;;;;;;;5142848;27;20043;-55
2023/07/24 10:28:57;;;;;;;16.33;3.00;;;;;;;;;;5126554;27;20055;-46
2023/07/24 10:31:29;;;;;;;10.77;2.22;;;;;;;;;;5125472;28;20082;-49
2023/07/24 10:33:56;;;;;;;11.35;2.30;;;;;;;;;;5125214;28;20031;-54
2023/07/24 10:36:24;;;;;;;9.07;2.10;;;;;;;;;;5126038;28;20023;-53
2023/07/24 10:38:55;;;;;;;8.60;2.20;;;;;;;;;;5126061;28;20032;-56
2023/07/24 10:41:21;;;;;;;7.43;1.98;;;;;;;;;;5125142;28;20208;-54
2023/07/24 10:43:49;;;;;;;8.07;2.38;;;;;;;;;;5125304;28;20367;-53
2023/07/24 10:46:17;;;;;;;6.30;2.28;;;;;;;;;;5126711;28;20028;-57
2023/07/24 10:48:45;;;;;;;6.70;2.15;;;;;;;;;;5125425;28;20331;-51
2023/07/24 10:51:14;;;;;;;8.57;2.22;;;;;;;;;;5125430;28;20224;-56
2023/07/24 10:53:45;;;;;;;7.18;2.20;;;;;;;;;;5125833;28;20027;-57
2023/07/24 10:56:12;;;;;;;15.82;2.60;;;;;;;;;;5125469;28;20068;-58
2023/07/24 10:58:39;;;;;;;11.68;2.70;;;;;;;;;;5092134;28;20042;-61
2023/07/24 11:01:06;;;;;;;9.90;2.60;;;;;;;;;;5042242;28;20031;-52
2023/07/24 11:03:33;;;;;;;10.18;3.00;;;;;;;;;;5042099;28;20361;-53
2023/07/24 11:06:00;;;;;;;8.90;2.92;;;;;;;;;;5041992;28;20259;-58
2023/07/24 11:08:27;;;;;;;11.35;3.40;;;;;;;;;;5041953;28;20093;-61
2023/07/24 11:10:54;;;;;;;10.23;3.28;;;;;;;;;;5041886;28;20382;-49
2023/07/24 11:13:22;;;;;;;16.33;4.15;;;;;;;;;;5041562;28;20032;-58
2023/07/24 11:15:51;;;;;;;9.20;3.55;;;;;;;;;;5041339;28;20214;-53
2023/07/24 11:18:20;;;;;;;7.20;3.33;;;;;;;;;;5041708;28;20138;-54
2023/07/24 11:20:52;;;;;;;10.77;3.42;;;;;;;;;;5041701;28;20318;-55
2023/07/24 11:23:19;;;;;;;9.02;3.40;;;;;;;;;;5024042;28;20025;-58
2023/07/24 11:25:46;;;;;;;8.57;3.53;;;;;;;;;;5041833;28;20033;-55
2023/07/24 11:28:14;;;;;;;6.93;3.10;;;;;;;;;;5041491;28;20129;-56
2023/07/24 11:30:40;;;;;;;13.23;3.75;;;;;;;;;;5041497;28;20085;-53
2023/07/24 11:33:08;;;;;;;7.60;3.40;;;;;;;;;;5041325;28;20093;-48
2023/07/24 11:35:36;;;;;;;11.68;4.18;;;;;;;;;;5041992;28;20019;-53
2023/07/24 11:38:09;;;;;;;16.23;4.18;;;;;;;;;;5041305;28;20049;-60
2023/07/24 11:40:40;;;;;;;11.55;3.85;;;;;;;;;;5040815;28;20191;-54
2023/07/24 11:43:16;;;;;;;10.95;4.40;;;;;;;;;;5041076;28;20033;-52
2023/07/24 11:45:43;;;;;;;11.48;4.13;;;;;;;;;;5041321;28;20029;-54
2023/07/24 11:48:15;;;;;;;9.55;3.88;;;;;;;;;;5041306;28;20085;-54
2023/07/24 11:50:43;;;;;;;7.65;3.42;;;;;;;;;;5040414;28;20045;-46
2023/07/24 11:53:19;;;;;;;11.45;3.50;;;;;;;;;;5041428;28;20030;-55
2023/07/24 11:55:45;;;;;;;11.77;3.83;;;;;;;;;;5023843;28;20100;-55
2023/07/24 11:58:15;;;;;;;9.48;3.72;;;;;;;;;;5036904;28;20050;-47
2023/07/24 12:00:51;;;;;;;10.27;4.03;;;;;;;;;;5021963;28;20026;-60
2023/07/24 12:03:22;;;;;;;15.75;3.70;;;;;;;;;;5021985;28;20037;-61
2023/07/24 12:05:50;;;;;;;10.85;3.75;;;;;;;;;;5021405;28;20041;-58
2023/07/24 12:08:17;;;;;;;8.40;3.50;;;;;;;;;;5021896;28;20022;-60
2023/07/24 12:10:48;;;;;;;7.93;3.35;;;;;;;;;;5021344;28;20037;-62
2023/07/24 12:13:15;;;;;;;7.95;3.85;;;;;;;;;;5021560;28;20086;-60
2023/07/24 12:15:47;;;;;;;8.73;3.33;;;;;;;;;;5021309;28;20022;-60
2023/07/24 12:18:14;;;;;;;7.40;3.33;;;;;;;;;;5021218;28;20022;-61
2023/07/24 12:20:40;;;;;;;7.90;3.42;;;;;;;;;;5021126;28;20135;-60
2023/07/24 12:23:07;;;;;;;6.78;3.40;;;;;;;;;;5021505;28;20334;-59
2023/07/24 12:25:35;;;;;;;7.60;3.58;;;;;;;;;;5022429;28;20026;-60
2023/07/24 12:28:02;;;;;;;8.40;3.50;;;;;;;;;;5025062;28;20064;-60
2023/07/24 12:30:36;;;;;;;8.70;3.35;;;;;;;;;;5024734;28;20037;-62
2023/07/24 12:33:02;;;;;;;5.50;3.13;;;;;;;;;;5024535;28;20029;-60
2023/07/24 12:35:29;;;;;;;7.03;3.42;;;;;;;;;;5024593;28;20050;-63
2023/07/24 12:37:56;;;;;;;8.38;3.50;;;;;;;;;;5024618;28;20026;-60
2023/07/24 12:40:23;;;;;;;7.60;3.38;;;;;;;;;;5024384;28;20318;-61
2023/07/24 12:42:50;;;;;;;7.53;3.60;;;;;;;;;;5024374;28;20253;-60
2023/07/24 12:45:16;;;;;;;7.47;3.22;;;;;;;;;;5024959;28;20313;-60
2023/07/24 12:47:43;;;;;;;6.85;3.78;;;;;;;;;;5024332;28;20025;-60
2023/07/24 12:50:57;;;;;;;5.38;3.80;;;;;;;;;;5024454;28;20045;-62
2023/07/24 12:52:57;;;;;;;6.82;3.95;;;;;;;;;;5028734;28;20014;-61
2023/07/24 12:55:24;;;;;;;5.47;3.70;;;;;;;;;;5025070;28;20299;-61
2023/07/24 12:57:50;;;;;;;4.50;3.50;;;;;;;;;;5024449;28;20215;-61
2023/07/24 13:00:17;;;;;;;3.85;3.33;;;;;;;;;;5024832;28;20040;-62
2023/07/24 13:02:44;;;;;;;4.60;3.70;;;;;;;;;;5024587;28;20034;-65
2023/07/24 13:05:10;;;;;;;4.25;3.42;;;;;;;;;;5024732;28;20089;-60
2023/07/24 13:07:38;;;;;;;4.00;3.33;;;;;;;;;;5024377;28;20306;-63
2023/07/24 13:10:08;;;;;;;5.90;3.63;;;;;;;;;;5024940;28;20030;-53
2023/07/24 13:12:35;;;;;;;4.18;3.20;;;;;;;;;;5023923;28;20014;-52
2023/07/24 13:15:02;;;;;;;5.35;3.50;;;;;;;;;;5024264;28;20022;-51
2023/07/24 13:17:29;;;;;;;5.72;3.45;;;;;;;;;;5024263;28;20037;-53
2023/07/24 13:19:56;;;;;;;5.85;2.97;;;;;;;;;;5024194;28;20050;-57
2023/07/24 13:22:25;;;;;;;5.70;3.28;;;;;;;;;;5024087;28;20071;-53
2023/07/24 13:24:52;;;;;;;6.50;3.22;;;;;;;;;;5024457;28;20030;-54
2023/07/24 13:27:19;;;;;;;3.85;3.05;;;;;;;;;;5024005;28;20022;-54
2023/07/24 13:29:45;;;;;;;4.10;3.30;;;;;;;;;;5024489;28;20025;-53
2023/07/24 13:32:14;;;;;;;5.03;3.22;;;;;;;;;;5024140;28;20030;-52
2023/07/24 13:34:50;;;;;;;4.82;3.10;;;;;;;;;;5025276;28;20030;-58
2023/07/24 13:37:17;;;;;;;4.50;2.83;;;;;;;;;;5076006;28;20034;-61
2023/07/24 13:39:43;;;;;;;4.45;3.20;;;;;;;;;;5025678;28;20033;-60
2023/07/24 13:42:10;;;;;;;6.53;3.20;;;;;;;;;;5025549;28;20029;-60
2023/07/24 13:44:37;;;;;;;3.65;3.05;;;;;;;;;;5025834;28;20022;-58
2023/07/24 13:47:03;;;;;;;6.55;3.13;;;;;;;;;;5023548;28;20018;-58
2023/07/24 13:49:30;;;;;;;4.10;3.25;;;;;;;;;;5023404;28;20326;-58
2023/07/24 13:51:57;;;;;;;10.32;3.15;;;;;;;;;;5023386;28;20032;-54
2023/07/24 13:54:23;;;;;;;12.07;3.95;;;;;;;;;;5023383;28;20302;-52
2023/07/24 13:56:50;;;;;;;15.40;4.53;;;;;;;;;;5023580;28;20059;-54
2023/07/24 13:59:17;;;;;;;19.70;4.30;;;;;;;;;;5023529;28;20057;-57
2023/07/24 14:01:44;;;;;;;15.55;4.68;;;;;;;;;;5023720;28;20041;-53
2023/07/24 14:04:12;;;;;;;19.13;4.50;;;;;;;;;;5023603;28;20213;-55
2023/07/24 14:06:43;;;;;;;20.55;4.80;;;;;;;;;;5023213;28;20022;-51
2023/07/24 14:09:10;;;;;;;20.30;4.85;;;;;;;;;;5023232;28;20052;-52
2023/07/24 14:11:37;;;;;;;18.92;4.53;;;;;;;;;;5023291;28;20022;-57
2023/07/24 14:14:03;;;;;;;19.02;4.50;;;;;;;;;;5022963;28;20025;-52
2023/07/24 14:16:39;;;;;;;10.90;4.82;;;;;;;;;;5023194;28;20036;-51
2023/07/24 14:19:06;;;;;;;14.93;4.22;;;;;;;;;;5022538;28;20045;-53
2023/07/24 14:21:32;;;;;;;8.65;4.13;;;;;;;;;;5021174;28;20059;-54
2023/07/24 14:23:59;;;;;;;11.68;4.30;;;;;;;;;;5012614;28;20375;-56
2023/07/24 14:26:27;;;;;;;10.35;4.72;;;;;;;;;;5016947;28;20067;-58
2023/07/24 14:28:53;;;;;;;9.75;4.32;;;;;;;;;;5014352;28;20044;-52
2023/07/24 14:31:20;;;;;;;9.52;4.28;;;;;;;;;;5018772;28;20059;-52
2023/07/24 14:33:47;;;;;;;7.43;4.45;;;;;;;;;;5021236;28;20026;-53
2023/07/24 14:36:14;;;;;;;6.70;4.10;;;;;;;;;;5014269;28;20038;-53
2023/07/24 14:38:40;;;;;;;7.28;4.82;;;;;;;;;;5038838;28;20211;-53
2023/07/24 14:41:07;;;;;;;8.60;4.47;;;;;;;;;;5074944;28;20027;-55
2023/07/24 14:43:34;;;;;;;5.68;4.35;;;;;;;;;;5029282;28;20330;-55
2023/07/24 14:46:00;;;;;;;7.35;4.00;;;;;;;;;;5015093;28;20033;-53